Time;durP1;ratioP1;P1;durP2;ratioP2;P2;SDS_P1;SDS_P2;PMS_P1;PMS_P2;Temp;Humidity;BMP_temperature;BMP_pressure;BME280_temperature;BME280_humidity;BME280_pressure;Samples;Min_cycle;Max_cycle;Signal;HPM_P1;HPM_P2
2022/07/15 00:00:15;;;;;;;9.43;1.85;;;;;;;15.39;66.50;102109.69;5078737;28;20067;-72
2022/07/15 00:02:42;;;;;;;11.35;1.88;;;;;;;15.32;66.95;102110.78;5090610;28;20131;-72
2022/07/15 00:05:09;;;;;;;6.93;1.73;;;;;;;15.26;67.65;102117.13;5090848;28;20044;-73
2022/07/15 00:07:37;;;;;;;5.13;1.63;;;;;;;15.17;67.65;102117.41;5092246;28;20526;-73
2022/07/15 00:10:14;;;;;;;7.63;1.90;;;;;;;15.08;67.85;102113.25;5092505;28;20042;-73
2022/07/15 00:12:46;;;;;;;8.75;2.50;;;;;;;14.99;68.58;102114.38;5091780;28;20051;-72
2022/07/15 00:15:14;;;;;;;11.45;2.65;;;;;;;14.91;68.90;102111.09;5091442;28;20511;-72
2022/07/15 00:17:42;;;;;;;7.30;2.58;;;;;;;14.83;69.20;102113.94;5090722;28;20056;-73
2022/07/15 00:20:13;;;;;;;11.20;2.80;;;;;;;14.76;69.55;102112.38;5090101;28;20098;-72
2022/07/15 00:22:43;;;;;;;6.38;2.67;;;;;;;14.70;69.45;102110.78;5088631;28;20040;-73
2022/07/15 00:25:13;;;;;;;7.03;2.40;;;;;;;14.66;69.95;102111.72;5091624;28;20040;-71
2022/07/15 00:27:53;;;;;;;8.63;2.88;;;;;;;14.62;69.76;102111.84;5091045;28;20049;-71
2022/07/15 00:30:24;;;;;;;10.00;2.70;;;;;;;14.57;70.27;102109.31;5089182;28;20041;-71
2022/07/15 00:32:51;;;;;;;6.28;2.83;;;;;;;14.52;70.59;102111.25;5090308;28;20045;-71
2022/07/15 00:35:19;;;;;;;11.93;2.60;;;;;;;14.45;70.72;102114.03;5090888;28;20041;-72
2022/07/15 00:37:47;;;;;;;6.63;2.25;;;;;;;14.39;70.82;102111.56;5091358;28;20036;-71
2022/07/15 00:40:14;;;;;;;6.32;2.25;;;;;;;14.34;70.78;102109.94;5092121;28;20043;-72
2022/07/15 00:42:44;;;;;;;8.20;2.70;;;;;;;14.29;71.00;102108.25;5089065;28;20041;-70
2022/07/15 00:45:18;;;;;;;10.00;2.72;;;;;;;14.25;70.88;102111.03;5106734;27;20522;-71
2022/07/15 00:47:56;;;;;;;7.68;2.67;;;;;;;14.25;71.55;102121.63;5090461;28;20094;-71
2022/07/15 00:50:29;;;;;;;6.75;2.45;;;;;;;14.21;71.52;102112.03;5092005;28;20045;-71
2022/07/15 00:53:05;;;;;;;9.05;2.80;;;;;;;14.17;71.34;102118.31;5084979;28;20045;-70
2022/07/15 00:55:41;;;;;;;9.35;2.60;;;;;;;14.13;71.34;102115.75;5092024;28;20117;-70
2022/07/15 00:58:15;;;;;;;8.13;2.50;;;;;;;14.09;71.72;102106.13;5088877;28;20068;-71
2022/07/15 01:00:45;;;;;;;6.80;2.63;;;;;;;14.07;71.71;102105.28;5091093;28;20090;-72
2022/07/15 01:03:20;;;;;;;9.70;2.17;;;;;;;14.06;71.72;102106.19;5090843;28;20068;-72
2022/07/15 01:05:49;;;;;;;12.55;2.70;;;;;;;14.06;72.02;102108.84;5106656;28;20533;-71
2022/07/15 01:08:20;;;;;;;11.60;2.55;;;;;;;14.07;72.30;102115.91;5088367;28;20533;-71
2022/07/15 01:10:49;;;;;;;7.63;2.22;;;;;;;14.07;72.38;102107.94;5106798;28;20036;-70
2022/07/15 01:13:19;;;;;;;8.75;2.50;;;;;;;14.07;72.26;102115.91;5102385;28;20056;-72
2022/07/15 01:15:48;;;;;;;12.48;2.28;;;;;;;14.05;72.77;102111.53;5104254;28;20083;-71
2022/07/15 01:18:16;;;;;;;8.80;2.78;;;;;;;14.03;72.84;102118.66;5084929;28;20072;-72
2022/07/15 01:20:48;;;;;;;9.40;2.47;;;;;;;14.01;72.92;102108.09;5087138;28;20110;-72
2022/07/15 01:23:17;;;;;;;9.85;2.58;;;;;;;14.00;72.91;102121.38;5087206;28;20041;-72
2022/07/15 01:25:53;;;;;;;10.55;2.60;;;;;;;13.98;73.21;102119.66;5106696;28;20044;-71
2022/07/15 01:28:21;;;;;;;8.27;2.97;;;;;;;13.94;73.24;102114.44;5088485;28;20568;-71
2022/07/15 01:30:49;;;;;;;9.05;2.55;;;;;;;13.91;73.17;102110.09;5098434;28;20779;-71
2022/07/15 01:33:18;;;;;;;8.05;2.70;;;;;;;13.90;73.04;102110.13;5099935;28;20059;-71
2022/07/15 01:35:45;;;;;;;7.55;2.40;;;;;;;13.90;73.25;102116.28;5086868;28;20446;-71
2022/07/15 01:38:12;;;;;;;11.43;2.40;;;;;;;13.89;73.12;102119.84;5088158;28;20041;-72
2022/07/15 01:40:40;;;;;;;8.80;1.90;;;;;;;13.90;73.26;102118.09;5102868;28;20039;-72
2022/07/15 01:43:08;;;;;;;14.27;2.55;;;;;;;13.89;72.88;102117.19;5117312;27;20619;-72
2022/07/15 01:45:35;;;;;;;9.98;2.70;;;;;;;13.88;73.13;102114.59;5110262;28;20047;-72
2022/07/15 01:48:03;;;;;;;17.85;2.63;;;;;;;13.86;73.10;102127.91;5106818;28;20045;-72
2022/07/15 01:50:59;;;;;;;8.98;2.00;;;;;;;13.83;72.78;102117.38;5097366;28;20056;-71
2022/07/15 01:53:28;;;;;;;7.70;2.00;;;;;;;13.84;73.29;102123.56;5088486;28;20537;-71
2022/07/15 01:55:55;;;;;;;11.57;1.90;;;;;;;13.82;72.88;102124.47;5092414;28;20115;-71
2022/07/15 01:58:22;;;;;;;8.77;2.13;;;;;;;13.78;72.77;102121.91;5096270;28;20138;-72
2022/07/15 02:00:50;;;;;;;6.72;1.90;;;;;;;13.73;73.25;102124.69;5100248;27;20076;-71
2022/07/15 02:03:19;;;;;;;13.18;2.67;;;;;;;13.70;73.33;102124.72;5084331;28;20055;-71
2022/07/15 02:05:47;;;;;;;9.13;2.55;;;;;;;13.69;73.70;102132.69;5084133;28;20040;-72
2022/07/15 02:08:16;;;;;;;12.25;2.33;;;;;;;13.70;73.93;102131.78;5090317;28;20048;-72
2022/07/15 02:10:43;;;;;;;9.90;2.15;;;;;;;13.69;74.03;102122.09;5091238;28;20076;-74
2022/07/15 02:13:15;;;;;;;8.48;2.17;;;;;;;13.69;74.38;102128.28;5108313;27;20067;-74
2022/07/15 02:15:48;;;;;;;13.23;2.78;;;;;;;13.68;73.97;102126.53;5109829;28;20062;-73
2022/07/15 02:18:16;;;;;;;9.85;1.70;;;;;;;13.67;74.08;102124.78;5109131;27;20119;-74
2022/07/15 02:20:43;;;;;;;14.38;2.28;;;;;;;13.65;73.86;102116.91;5094579;28;20044;-75
2022/07/15 02:23:10;;;;;;;14.43;2.53;;;;;;;13.65;73.84;102122.19;5091985;28;20032;-74
2022/07/15 02:25:39;;;;;;;7.38;2.33;;;;;;;13.64;73.77;102127.50;5110155;27;20613;-72
2022/07/15 02:28:07;;;;;;;7.05;2.03;;;;;;;13.63;73.82;102125.78;5108964;28;20048;-72
2022/07/15 02:30:41;;;;;;;9.13;2.00;;;;;;;13.60;74.15;102118.75;5093340;28;20045;-70
2022/07/15 02:33:10;;;;;;;7.50;1.80;;;;;;;13.56;74.04;102127.69;5092381;28;20048;-71
2022/07/15 02:35:37;;;;;;;7.72;2.20;;;;;;;13.54;73.92;102118.91;5109999;28;20458;-71
2022/07/15 02:38:06;;;;;;;7.65;2.05;;;;;;;13.49;73.80;102126.97;5090378;28;20040;-71
2022/07/15 02:40:33;;;;;;;7.90;2.20;;;;;;;13.44;74.08;102126.19;5094201;28;20045;-71
2022/07/15 02:43:09;;;;;;;8.05;2.00;;;;;;;13.42;74.60;102127.13;5080469;28;20052;-71
2022/07/15 02:45:37;;;;;;;11.77;2.22;;;;;;;13.42;74.68;102129.78;5092927;28;20043;-71
2022/07/15 02:48:09;;;;;;;12.68;2.70;;;;;;;13.43;74.81;102127.06;5091073;28;21001;-71
2022/07/15 02:50:44;;;;;;;12.85;2.30;;;;;;;13.47;74.75;102128.75;5093284;28;20503;-71
2022/07/15 02:53:14;;;;;;;6.95;1.92;;;;;;;13.51;74.66;102126.91;5106946;27;20419;-72
2022/07/15 02:55:42;;;;;;;11.20;2.40;;;;;;;13.56;74.98;102134.75;5107272;27;20060;-72
2022/07/15 02:58:10;;;;;;;8.50;1.92;;;;;;;13.59;75.20;102137.34;5107968;27;20127;-72
2022/07/15 03:00:40;;;;;;;8.23;2.20;;;;;;;13.58;74.81;102139.09;5104584;28;20571;-72
2022/07/15 03:03:07;;;;;;;8.65;2.25;;;;;;;13.56;74.73;102129.47;5106656;27;20040;-72
2022/07/15 03:05:37;;;;;;;5.80;2.20;;;;;;;13.51;74.53;102135.75;5093496;28;20056;-71
2022/07/15 03:08:04;;;;;;;6.05;2.00;;;;;;;13.49;74.85;102142.84;5091340;28;20036;-72
2022/07/15 03:10:32;;;;;;;8.57;2.00;;;;;;;13.44;74.89;102141.22;5090828;28;20048;-72
2022/07/15 03:12:59;;;;;;;10.23;2.28;;;;;;;13.41;75.00;102150.09;5108751;27;20051;-72
2022/07/15 03:15:27;;;;;;;11.82;2.90;;;;;;;13.40;74.93;102153.66;5087456;28;20049;-71
2022/07/15 03:17:54;;;;;;;7.75;2.53;;;;;;;13.39;75.21;102158.94;5107252;27;20068;-71
2022/07/15 03:20:21;;;;;;;10.57;2.33;;;;;;;13.35;75.15;102159.00;5092230;28;20060;-72
2022/07/15 03:22:50;;;;;;;7.07;2.58;;;;;;;13.32;75.51;102158.22;5108492;27;20036;-72
2022/07/15 03:25:19;;;;;;;11.20;2.58;;;;;;;13.26;75.24;102155.66;5098623;27;20040;-71
2022/07/15 03:27:47;;;;;;;10.60;2.80;;;;;;;13.22;75.38;102154.00;5093322;28;20063;-70
2022/07/15 03:30:14;;;;;;;9.73;3.10;;;;;;;13.14;75.62;102155.00;5102917;28;20045;-71
2022/07/15 03:32:42;;;;;;;9.30;2.83;;;;;;;13.10;75.86;102166.59;5108939;27;20036;-71
2022/07/15 03:35:10;;;;;;;11.77;3.15;;;;;;;13.09;75.85;102159.53;5090736;28;20521;-72
2022/07/15 03:37:39;;;;;;;11.75;3.17;;;;;;;13.09;76.29;102156.91;5089090;28;20423;-71
2022/07/15 03:40:07;;;;;;;11.73;3.35;;;;;;;13.11;76.49;102160.41;5081991;28;20033;-71
2022/07/15 03:42:36;;;;;;;10.25;3.40;;;;;;;13.10;76.28;102165.69;5086131;28;20041;-70
2022/07/15 03:45:05;;;;;;;11.40;3.30;;;;;;;13.11;76.72;102172.75;5106954;28;20045;-71
2022/07/15 03:47:36;;;;;;;16.38;3.80;;;;;;;13.11;76.75;102173.63;5092448;28;20140;-73
2022/07/15 03:50:08;;;;;;;;;;;;;;;13.11;77.38;102178.94;5097805;28;20080;-73
2022/07/15 03:52:36;;;;;;;9.98;3.15;;;;;;;13.10;77.12;102179.81;5091111;28;19974;-73
2022/07/15 03:55:06;;;;;;;11.65;3.50;;;;;;;13.13;77.25;102184.19;5091389;28;20051;-72
2022/07/15 03:57:34;;;;;;;11.40;3.55;;;;;;;13.14;77.06;102186.78;5106238;27;20794;-73
2022/07/15 04:00:05;;;;;;;10.95;3.70;;;;;;;13.16;76.93;102187.63;5090611;28;20124;-72
2022/07/15 04:02:42;;;;;;;11.18;3.05;;;;;;;13.17;76.80;102192.03;5091029;28;20072;-72
2022/07/15 04:05:14;;;;;;;11.23;3.63;;;;;;;13.17;76.99;102196.47;5092386;28;20040;-71
2022/07/15 04:07:42;;;;;;;14.82;3.42;;;;;;;13.16;76.90;102197.38;5090665;28;20032;-71
2022/07/15 04:10:09;;;;;;;13.25;3.88;;;;;;;13.16;77.02;102200.00;5090699;28;20041;-70
2022/07/15 04:12:36;;;;;;;9.55;3.58;;;;;;;13.20;76.89;102206.97;5091385;28;20051;-72
2022/07/15 04:15:11;;;;;;;;;;;;;;;13.23;76.73;102203.41;5085899;28;20596;-72
2022/07/15 04:17:38;;;;;;;8.52;3.25;;;;;;;13.24;76.56;102208.69;5091501;28;20452;-71
2022/07/15 04:20:07;;;;;;;14.68;3.85;;;;;;;13.28;76.67;102205.03;5093134;28;20049;-71
2022/07/15 04:22:41;;;;;;;9.80;3.45;;;;;;;13.33;76.44;102204.94;5089958;28;20586;-71
2022/07/15 04:25:16;;;;;;;9.07;3.58;;;;;;;13.38;76.43;102199.59;5103051;27;20041;-71
2022/07/15 04:27:44;;;;;;;8.45;3.42;;;;;;;13.45;76.31;102204.75;5082145;28;20050;-71
2022/07/15 04:30:12;;;;;;;11.50;3.40;;;;;;;13.54;75.97;102197.50;5106571;27;20040;-72
2022/07/15 04:32:47;;;;;;;16.67;3.78;;;;;;;13.63;76.03;102202.63;5108691;28;20822;-72
2022/07/15 04:35:15;;;;;;;23.85;3.88;;;;;;;13.73;75.90;102203.28;5107387;27;20052;-74
2022/07/15 04:37:45;;;;;;;14.43;4.05;;;;;;;13.81;75.62;102204.88;5107128;28;20052;-74
2022/07/15 04:40:13;;;;;;;32.42;5.55;;;;;;;13.88;75.62;102213.56;5089880;28;20495;-72
2022/07/15 04:42:43;;;;;;;12.50;3.50;;;;;;;13.91;75.38;102210.81;5088154;28;20040;-73
2022/07/15 04:45:13;;;;;;;11.63;3.58;;;;;;;13.96;75.03;102219.56;5090274;28;20120;-73
2022/07/15 04:47:42;;;;;;;22.02;4.50;;;;;;;13.99;75.12;102215.97;5108116;27;20044;-71
2022/07/15 04:52:59;;;;;;;15.93;4.10;;;;;;;14.07;74.58;102203.41;5091175;28;20041;-71
2022/07/15 04:55:27;;;;;;;14.00;3.72;;;;;;;14.15;74.32;102200.56;5092626;27;20578;-72
2022/07/15 04:58:03;;;;;;;10.95;3.50;;;;;;;14.22;74.38;102209.25;5107443;27;20074;-71
2022/07/15 05:00:32;;;;;;;11.45;3.72;;;;;;;14.31;74.04;102208.16;5098844;28;20551;-72
2022/07/15 05:03:04;;;;;;;12.23;3.50;;;;;;;14.37;73.97;102210.66;5110134;27;20491;-71
2022/07/15 05:05:33;;;;;;;12.77;3.47;;;;;;;14.48;73.54;102211.28;5107590;28;20056;-71
2022/07/15 05:08:03;;;;;;;14.90;4.00;;;;;;;14.57;73.10;102212.81;5099148;27;20063;-71
2022/07/15 05:10:39;;;;;;;24.58;4.72;;;;;;;14.63;73.07;102207.38;5090575;28;20028;-71
2022/07/15 05:13:07;;;;;;;20.35;3.90;;;;;;;14.71;72.83;102216.03;5090547;28;20049;-70
2022/07/15 05:15:34;;;;;;;11.15;3.78;;;;;;;14.77;72.74;102214.09;5091123;28;20099;-70
2022/07/15 05:18:27;;;;;;;12.63;3.88;;;;;;;14.86;72.43;102214.75;5091237;28;20053;-71
2022/07/15 05:20:57;;;;;;;27.00;5.60;;;;;;;14.93;72.19;102220.78;5103645;28;20522;-70
2022/07/15 05:23:29;;;;;;;35.88;5.03;;;;;;;15.25;71.37;102224.34;5088615;28;20045;-71
2022/07/15 05:26:01;;;;;;;9.48;3.35;;;;;;;15.50;70.72;102220.97;5107117;28;20045;-70
2022/07/15 05:28:29;;;;;;;14.27;3.53;;;;;;;15.55;70.39;102221.72;5107046;28;20116;-71
2022/07/15 05:30:58;;;;;;;17.10;4.05;;;;;;;15.77;70.05;102221.09;5090740;28;20041;-71
2022/07/15 05:33:25;;;;;;;14.95;4.22;;;;;;;15.98;69.52;102217.78;5092137;28;20047;-71
2022/07/15 05:35:53;;;;;;;18.13;3.67;;;;;;;16.69;67.92;102209.28;5078858;28;20047;-70
2022/07/15 05:38:26;;;;;;;9.90;3.20;;;;;;;17.64;65.81;102213.88;5105899;28;20146;-70
2022/07/15 05:40:54;;;;;;;19.73;3.78;;;;;;;19.68;60.76;102205.28;5091615;28;20040;-71
2022/07/15 05:43:24;;;;;;;13.43;2.95;;;;;;;22.09;53.39;102203.63;5104637;27;20040;-70
2022/07/15 05:45:52;;;;;;;13.07;3.05;;;;;;;23.91;49.76;102204.22;5107155;28;20495;-70
2022/07/15 05:48:21;;;;;;;12.35;2.50;;;;;;;25.39;46.16;102199.50;5091168;28;20048;-70
2022/07/15 05:50:54;;;;;;;13.85;2.92;;;;;;;26.70;43.07;102200.72;5110310;27;20151;-70
2022/07/15 05:53:21;;;;;;;10.20;2.38;;;;;;;27.73;40.35;102200.63;5112621;27;20048;-71
2022/07/15 05:55:52;;;;;;;10.73;2.38;;;;;;;28.67;37.73;102197.31;5128186;27;20044;-71
2022/07/15 05:58:21;;;;;;;9.75;2.50;;;;;;;29.37;35.58;102191.25;5092516;28;20045;-70
2022/07/15 06:00:51;;;;;;;7.78;2.58;;;;;;;29.84;34.68;102181.63;5108586;28;20543;-70
2022/07/15 06:03:21;;;;;;;8.30;1.93;;;;;;;30.36;33.57;102192.22;5109036;28;20126;-70
2022/07/15 06:05:48;;;;;;;10.73;2.30;;;;;;;30.77;32.33;102197.50;5102567;28;20051;-71
2022/07/15 06:08:18;;;;;;;3.55;1.40;;;;;;;31.08;31.91;102194.53;5110094;27;20044;-71
2022/07/15 06:10:46;;;;;;;12.27;1.95;;;;;;;31.36;30.97;102178.22;5090810;28;20566;-70
2022/07/15 06:13:14;;;;;;;8.60;1.52;;;;;;;31.55;29.98;102183.56;5107077;27;20116;-71
2022/07/15 06:15:43;;;;;;;6.47;1.40;;;;;;;31.62;28.79;102180.19;5088320;28;20057;-71
2022/07/15 06:18:16;;;;;;;7.82;1.40;;;;;;;30.99;29.18;102188.09;5116482;27;20045;-70
2022/07/15 06:20:46;;;;;;;12.88;2.10;;;;;;;28.96;31.56;102180.34;5107334;28;20098;-71
2022/07/15 06:23:14;;;;;;;7.25;1.50;;;;;;;26.20;35.76;102186.41;5091711;28;20116;-71
2022/07/15 06:25:42;;;;;;;16.13;2.30;;;;;;;24.11;39.98;102198.41;5090774;28;20076;-70
2022/07/15 06:28:09;;;;;;;7.22;1.50;;;;;;;22.54;42.93;102195.66;5089700;28;20049;-70
2022/07/15 06:30:38;;;;;;;6.70;1.30;;;;;;;21.30;45.75;102198.13;5090857;28;20547;-70
2022/07/15 06:33:05;;;;;;;4.55;1.38;;;;;;;20.33;48.28;102204.88;5106983;28;20080;-69
2022/07/15 06:35:34;;;;;;;7.63;1.90;;;;;;;19.59;50.56;102203.03;5107173;28;20048;-70
2022/07/15 06:38:01;;;;;;;18.33;3.03;;;;;;;19.07;52.18;102207.16;5091539;28;20478;-70
2022/07/15 06:40:29;;;;;;;23.98;3.25;;;;;;;18.70;53.71;102208.75;5090513;28;20098;-71
2022/07/15 06:42:56;;;;;;;14.98;1.90;;;;;;;18.39;54.89;102209.19;5088838;28;20049;-70
2022/07/15 06:45:26;;;;;;;11.05;1.73;;;;;;;18.16;55.13;102211.88;5098091;28;20043;-71
2022/07/15 06:47:55;;;;;;;3.65;1.20;;;;;;;17.96;55.89;102207.31;5103210;28;20040;-71
2022/07/15 06:50:26;;;;;;;11.63;1.75;;;;;;;17.89;56.62;102211.13;5103703;27;20044;-71
2022/07/15 06:52:54;;;;;;;13.50;1.70;;;;;;;17.81;57.34;102199.91;5106429;28;20037;-70
2022/07/15 06:55:23;;;;;;;16.90;1.77;;;;;;;17.79;57.25;102202.66;5106994;28;20115;-71
2022/07/15 06:57:50;;;;;;;12.95;2.08;;;;;;;17.83;57.89;102198.06;5109789;28;20300;-70
2022/07/15 07:00:19;;;;;;;7.50;1.85;;;;;;;17.84;57.52;102195.31;5097181;28;20044;-70
2022/07/15 07:02:46;;;;;;;16.38;1.80;;;;;;;17.86;57.42;102192.56;5113233;28;20243;-70
2022/07/15 07:05:16;;;;;;;7.07;1.40;;;;;;;17.87;57.11;102201.47;5112824;28;20048;-71
2022/07/15 07:07:45;;;;;;;12.85;1.70;;;;;;;17.90;56.66;102199.53;5108310;28;20514;-71
2022/07/15 07:10:13;;;;;;;3.92;1.00;;;;;;;17.89;56.49;102202.28;5106993;28;20036;-71
2022/07/15 07:12:41;;;;;;;6.05;1.30;;;;;;;17.94;56.47;102206.50;5088280;28;20546;-70
2022/07/15 07:15:09;;;;;;;6.05;1.10;;;;;;;18.08;56.56;102202.44;5071905;28;20064;-71
2022/07/15 07:17:36;;;;;;;18.02;2.00;;;;;;;18.08;56.04;102203.31;5080625;28;20053;-71
2022/07/15 07:20:04;;;;;;;13.75;1.70;;;;;;;18.10;56.22;102204.13;5091508;28;20036;-71
2022/07/15 07:22:32;;;;;;;13.95;1.70;;;;;;;18.24;55.50;102200.88;5091470;28;20056;-70
2022/07/15 07:25:00;;;;;;;12.80;1.52;;;;;;;18.35;55.39;102192.41;5100823;28;20036;-71
2022/07/15 07:27:27;;;;;;;10.00;1.90;;;;;;;18.54;55.27;102200.53;5096220;28;20037;-70
2022/07/15 07:29:54;;;;;;;5.85;1.20;;;;;;;18.66;54.16;102204.47;5102058;27;20966;-70
2022/07/15 07:32:22;;;;;;;11.00;1.42;;;;;;;18.72;53.75;102206.88;5097252;28;20048;-70
2022/07/15 07:34:50;;;;;;;5.85;1.30;;;;;;;18.86;53.21;102194.72;5096573;28;20095;-70
2022/07/15 07:37:18;;;;;;;6.55;1.13;;;;;;;19.00;52.98;102208.38;5084863;28;20095;-71
2022/07/15 07:39:45;;;;;;;10.23;1.27;;;;;;;19.06;52.81;102208.09;5093874;28;20078;-72
2022/07/15 07:42:13;;;;;;;3.28;0.80;;;;;;;19.13;51.82;102205.19;5100105;28;20488;-71
2022/07/15 07:44:40;;;;;;;5.55;1.10;;;;;;;19.06;52.63;102215.25;5103782;28;20040;-71
2022/07/15 07:47:07;;;;;;;4.75;1.10;;;;;;;19.15;50.82;102217.53;5099885;27;20071;-70
2022/07/15 07:49:40;;;;;;;8.68;1.50;;;;;;;19.21;51.33;102214.56;5096548;28;20135;-70
2022/07/15 07:52:07;;;;;;;3.95;0.85;;;;;;;19.44;50.63;102215.31;5095794;28;20094;-71
2022/07/15 07:54:35;;;;;;;6.05;1.20;;;;;;;19.57;50.05;102220.97;5090726;28;20066;-71
2022/07/15 07:57:03;;;;;;;10.88;1.02;;;;;;;19.35;50.46;102211.25;5089988;28;20040;-71
2022/07/15 07:59:31;;;;;;;8.23;1.10;;;;;;;19.36;50.95;102214.81;5094917;28;20036;-70
2022/07/15 08:01:59;;;;;;;4.72;0.77;;;;;;;19.52;50.12;102214.97;5093870;28;20802;-71
2022/07/15 08:04:27;;;;;;;4.63;1.00;;;;;;;19.76;48.96;102212.97;5089883;28;20048;-70
2022/07/15 08:06:57;;;;;;;3.00;0.80;;;;;;;19.85;49.03;102216.97;5079908;28;20124;-70
2022/07/15 08:09:26;;;;;;;8.60;1.30;;;;;;;19.93;49.91;102219.31;5101358;28;20043;-70
2022/07/15 08:11:54;;;;;;;5.07;1.40;;;;;;;20.20;49.52;102211.75;5102905;27;20055;-71
2022/07/15 08:14:22;;;;;;;5.32;0.90;;;;;;;20.45;47.82;102224.78;5093230;28;20048;-71
2022/07/15 08:16:51;;;;;;;6.00;1.00;;;;;;;20.27;47.59;102218.53;5088633;28;20169;-70
2022/07/15 08:19:20;;;;;;;15.98;1.45;;;;;;;20.04;48.18;102226.84;5089824;28;20080;-71
2022/07/15 08:21:48;;;;;;;22.77;2.55;;;;;;;19.85;47.96;102227.69;5086123;28;20435;-70
2022/07/15 08:24:18;;;;;;;5.18;0.82;;;;;;;19.67;47.91;102213.41;5086346;28;20141;-72
2022/07/15 08:26:51;;;;;;;7.75;1.17;;;;;;;19.74;47.73;102230.88;5106892;28;20087;-71
2022/07/15 08:29:19;;;;;;;7.15;0.88;;;;;;;19.59;48.15;102226.22;5091367;28;20891;-71
2022/07/15 08:31:47;;;;;;;8.52;1.30;;;;;;;19.44;48.30;102225.13;5090939;28;20036;-71
2022/07/15 08:34:15;;;;;;;9.60;1.17;;;;;;;19.36;48.08;102233.53;5093155;28;20142;-71
2022/07/15 08:36:42;;;;;;;3.22;0.90;;;;;;;19.60;47.95;102230.66;5091887;28;20099;-71
2022/07/15 08:39:11;;;;;;;5.35;1.33;;;;;;;19.84;47.82;102228.66;5091240;28;20110;-71
2022/07/15 08:41:41;;;;;;;9.20;1.02;;;;;;;20.03;47.88;102234.00;5071462;28;20075;-70
2022/07/15 08:44:09;;;;;;;5.75;1.00;;;;;;;20.33;47.10;102239.69;5078888;28;20091;-71
2022/07/15 08:46:40;;;;;;;5.20;0.90;;;;;;;20.61;45.38;102224.88;5091585;28;20079;-71
2022/07/15 08:49:18;;;;;;;5.72;1.00;;;;;;;20.85;44.34;102231.75;5091492;28;20044;-71
2022/07/15 08:51:47;;;;;;;8.50;0.93;;;;;;;20.93;44.29;102226.88;5093938;28;20053;-71
2022/07/15 08:54:16;;;;;;;7.00;1.17;;;;;;;20.91;44.97;102234.13;5093366;28;20064;-71
2022/07/15 08:56:45;;;;;;;5.28;1.10;;;;;;;21.03;44.95;102230.78;5092918;28;20048;-71
2022/07/15 08:59:14;;;;;;;4.97;1.02;;;;;;;21.10;44.89;102225.97;5093420;28;20581;-71
2022/07/15 09:01:46;;;;;;;8.05;1.23;;;;;;;21.18;44.88;102218.38;5092569;28;20036;-71
2022/07/15 09:04:15;;;;;;;7.00;1.52;;;;;;;21.23;44.83;102208.31;5092130;28;20078;-71
2022/07/15 09:06:47;;;;;;;15.23;1.60;;;;;;;21.35;44.62;102219.31;5094103;28;20606;-72
2022/07/15 09:09:34;;;;;;;5.18;1.25;;;;;;;21.50;42.96;102217.59;5091941;28;20041;-72
2022/07/15 09:12:11;;;;;;;6.47;0.95;;;;;;;21.23;43.84;102218.13;5092977;28;20041;-72
2022/07/15 09:14:44;;;;;;;8.10;1.13;;;;;;;21.05;43.79;102217.34;5093028;28;20106;-72
2022/07/15 09:17:14;;;;;;;3.08;0.65;;;;;;;20.85;43.64;102218.38;5092110;28;20478;-72
2022/07/15 09:20:07;;;;;;;11.60;1.38;;;;;;;20.55;43.99;102214.47;5091606;28;20048;-72
2022/07/15 09:22:56;;;;;;;;;;;;;;;20.64;44.63;102207.78;5109442;28;20048;-71
2022/07/15 09:25:24;;;;;;;5.57;1.00;;;;;;;20.90;43.45;102208.28;5092517;28;19924;-70
2022/07/15 09:27:53;;;;;;;7.65;1.17;;;;;;;21.00;44.27;102200.63;5092613;28;20106;-71
2022/07/15 09:33:39;;;;;;;7.63;1.05;;;;;;;21.41;42.75;102200.19;5091694;28;20033;-70
2022/07/15 09:36:20;;;;;;;12.03;1.30;;;;;;;21.14;42.68;102203.44;5091967;28;20041;-70
2022/07/15 09:39:04;;;;;;;8.27;1.13;;;;;;;21.19;41.96;102212.09;5092619;28;20102;-71
2022/07/15 09:41:40;;;;;;;21.05;2.00;;;;;;;21.23;42.83;102196.69;5092387;28;20044;-71
2022/07/15 09:44:23;;;;;;;6.03;0.95;;;;;;;21.44;41.47;102205.41;5089451;28;20044;-71
2022/07/15 09:47:03;;;;;;;10.30;1.40;;;;;;;21.69;41.44;102190.63;5092975;28;20056;-71
2022/07/15 09:49:38;;;;;;;13.70;1.98;;;;;;;22.02;41.43;102190.56;5091120;28;20509;-72
2022/07/15 09:52:10;;;;;;;7.95;1.10;;;;;;;22.41;40.47;102198.22;5092907;28;20045;-70
2022/07/15 09:54:45;;;;;;;15.15;1.38;;;;;;;22.65;40.32;102204.78;5092410;28;20045;-71
2022/07/15 09:57:16;;;;;;;4.05;0.70;;;;;;;22.56;38.56;102205.34;5108252;28;20041;-70
2022/07/15 09:59:51;;;;;;;12.38;1.38;;;;;;;22.27;38.33;102202.53;5092087;28;20078;-70
2022/07/15 10:02:18;;;;;;;15.80;1.45;;;;;;;22.15;39.44;102208.63;5092357;28;20620;-71
2022/07/15 10:04:47;;;;;;;5.88;1.08;;;;;;;22.29;39.37;102202.44;5090510;28;20087;-71
2022/07/15 10:07:19;;;;;;;10.00;1.08;;;;;;;22.32;39.12;102204.94;5091835;28;20455;-71
2022/07/15 10:10:22;;;;;;;6.43;0.90;;;;;;;22.16;39.90;102200.50;5091853;28;20047;-71
2022/07/15 10:13:24;;;;;;;15.82;1.50;;;;;;;21.98;39.78;102202.41;5092314;28;20063;-71
2022/07/15 10:16:53;;;;;;;6.20;1.00;;;;;;;21.98;39.36;102198.84;5091249;28;20060;-71
2022/07/15 10:20:11;;;;;;;3.92;0.70;;;;;;;22.31;39.64;102198.72;5107663;28;20037;-71
2022/07/15 10:22:56;;;;;;;10.55;1.20;;;;;;;22.51;38.76;102194.03;5106537;28;20049;-72
2022/07/15 10:25:51;;;;;;;3.97;1.00;;;;;;;22.67;38.92;102179.66;5092515;28;20120;-72
2022/07/15 10:28:35;;;;;;;5.13;1.00;;;;;;;22.84;38.89;102184.00;5111372;28;20048;-72
2022/07/15 10:31:34;;;;;;;6.85;0.90;;;;;;;23.06;38.06;102181.72;5095510;28;20040;-71
2022/07/15 10:34:38;;;;;;;4.80;0.93;;;;;;;23.16;37.41;102187.38;5090598;28;20090;-71
2022/07/15 10:37:12;;;;;;;7.93;1.25;;;;;;;23.36;37.25;102169.13;5091303;28;20111;-70
2022/07/15 10:39:45;;;;;;;11.38;1.80;;;;;;;23.64;36.16;102162.00;5094151;28;20051;-71
2022/07/15 10:42:13;;;;;;;5.03;0.77;;;;;;;23.92;35.89;102162.84;5097275;28;20045;-69
2022/07/15 10:45:05;;;;;;;8.25;1.08;;;;;;;23.94;35.82;102169.00;5095070;28;20041;-70
2022/07/15 10:47:33;;;;;;;1.98;0.60;;;;;;;23.96;36.15;102153.66;5092449;28;20189;-71
2022/07/15 10:50:36;;;;;;;6.80;0.80;;;;;;;23.87;36.07;102153.25;5111230;27;20123;-70
2022/07/15 10:53:19;;;;;;;10.45;0.93;;;;;;;23.97;35.23;102155.34;5093550;28;20119;-70
2022/07/15 10:55:50;;;;;;;7.18;0.75;;;;;;;24.17;35.43;102145.94;5095015;28;20040;-70
2022/07/15 10:58:18;;;;;;;18.15;1.80;;;;;;;24.34;34.77;102150.19;5096395;28;20040;-71
2022/07/15 11:00:52;;;;;;;7.78;0.80;;;;;;;24.59;34.64;102138.59;5094162;28;20045;-71
2022/07/15 11:03:20;;;;;;;;;;;;;;;24.48;34.19;102141.16;5089513;28;20040;-71
2022/07/15 11:05:48;;;;;;;6.72;0.88;;;;;;;24.31;34.74;102140.50;5093535;28;19935;-71
2022/07/15 11:08:31;;;;;;;9.43;1.40;;;;;;;23.92;34.59;102152.09;5094226;28;20036;-70
2022/07/15 11:11:24;;;;;;;9.95;1.23;;;;;;;23.60;35.05;102147.88;5090588;28;20044;-70
2022/07/15 11:13:57;;;;;;;11.90;1.10;;;;;;;23.80;35.02;102148.41;5087023;28;20045;-71
2022/07/15 11:16:33;;;;;;;2.40;0.70;;;;;;;24.14;34.54;102140.75;5090165;28;20064;-70
2022/07/15 11:19:00;;;;;;;4.88;0.60;;;;;;;23.96;33.94;102134.81;5089970;28;20045;-69
2022/07/15 11:21:30;;;;;;;14.10;1.42;;;;;;;23.82;34.39;102128.47;5087381;28;20040;-68
2022/07/15 11:24:00;;;;;;;4.97;1.25;;;;;;;23.66;34.34;102133.13;5089647;28;20041;-69
2022/07/15 11:26:46;;;;;;;5.03;0.90;;;;;;;23.44;35.20;102136.38;5090127;28;20045;-69
2022/07/15 11:29:15;;;;;;;6.43;1.17;;;;;;;23.32;35.49;102135.34;5093826;27;20576;-69
2022/07/15 11:31:43;;;;;;;3.88;0.60;;;;;;;23.21;35.65;102142.28;5093922;28;20530;-69
2022/07/15 11:34:11;;;;;;;14.40;1.50;;;;;;;23.18;35.65;102142.41;5089322;28;20911;-69
2022/07/15 11:36:38;;;;;;;10.00;0.85;;;;;;;23.16;36.19;102138.09;5092039;28;20076;-68
2022/07/15 11:39:05;;;;;;;8.65;1.58;;;;;;;23.15;36.36;102139.91;5089356;28;20067;-69
2022/07/15 11:44:31;;;;;;;2.50;0.60;;;;;;;23.79;35.89;102131.34;5086355;28;20051;-70
2022/07/15 11:47:02;;;;;;;9.27;1.27;;;;;;;24.18;35.20;102126.97;5089856;28;20045;-68
2022/07/15 11:49:40;;;;;;;4.13;0.85;;;;;;;24.46;34.26;102117.03;5089653;28;20549;-69